EUS15GC EGPH-EHAM
Flight info
| Callsign | EUS15GC |
|---|---|
| Flight time | N/A |
| Altitude | 30000 |
| Route | TLA Y96 OTBUN/N0449F370 DCT ERKIT N110 DOLAS L603 LAMSO |
| Aircraft | B738/M-SDE2E3FGHIRWXY/LB1 |
Departure
| Time | N/A |
|---|---|
| Airport | Edinburgh Airport (EGPH) |
Arrival
| Time | 2026-05-05 00:52 |
|---|---|
| Airport | Amsterdam Airport Schiphol (EHAM) |
| Time | Latitude | Longitude | Altitude | Speed | Heading |
|---|---|---|---|---|---|
| 2026-05-05 00:15 | 53.25728 | 0.40241 | 29996 ft | 475 kts | 127° |
| 2026-05-05 00:16 | 53.23708 | 0.44638 | 29992 ft | 476 kts | 128° |
| 2026-05-05 00:16 | 53.19666 | 0.53399 | 29990 ft | 477 kts | 128° |
| 2026-05-05 00:17 | 53.15607 | 0.62167 | 29991 ft | 478 kts | 128° |
| 2026-05-05 00:17 | 53.13582 | 0.66532 | 29968 ft | 465 kts | 128° |
| 2026-05-05 00:17 | 53.11653 | 0.70688 | 29979 ft | 447 kts | 128° |
| 2026-05-05 00:17 | 53.09732 | 0.74815 | 29375 ft | 461 kts | 129° |
| 2026-05-05 00:18 | 53.07718 | 0.79132 | 28700 ft | 481 kts | 129° |
| 2026-05-05 00:18 | 53.05679 | 0.83501 | 28011 ft | 473 kts | 129° |
| 2026-05-05 00:18 | 53.03678 | 0.87788 | 27338 ft | 466 kts | 129° |
| 2026-05-05 00:18 | 53.01704 | 0.92004 | 26685 ft | 459 kts | 130° |
| 2026-05-05 00:19 | 52.99804 | 0.96222 | 26034 ft | 454 kts | 125° |
| 2026-05-05 00:19 | 52.98297 | 1.00808 | 25409 ft | 451 kts | 116° |
| 2026-05-05 00:19 | 52.97210 | 1.05688 | 25147 ft | 453 kts | 107° |
| 2026-05-05 00:19 | 52.96540 | 1.10804 | 25055 ft | 455 kts | 102° |
| 2026-05-05 00:20 | 52.95963 | 1.15958 | 25008 ft | 453 kts | 101° |
| 2026-05-05 00:20 | 52.95399 | 1.21093 | 24999 ft | 452 kts | 102° |
| 2026-05-05 00:20 | 52.94830 | 1.26231 | 25004 ft | 453 kts | 102° |
| 2026-05-05 00:20 | 52.94250 | 1.31355 | 24995 ft | 453 kts | 102° |
| 2026-05-05 00:21 | 52.93657 | 1.36488 | 24998 ft | 453 kts | 102° |
| 2026-05-05 00:21 | 52.93056 | 1.41613 | 25004 ft | 453 kts | 102° |
| 2026-05-05 00:21 | 52.92447 | 1.46757 | 25016 ft | 460 kts | 102° |
| 2026-05-05 00:21 | 52.91816 | 1.52042 | 25018 ft | 474 kts | 102° |
| 2026-05-05 00:22 | 52.91168 | 1.57447 | 25010 ft | 481 kts | 102° |
| 2026-05-05 00:22 | 52.90513 | 1.62899 | 24994 ft | 482 kts | 102° |
| 2026-05-05 00:22 | 52.89868 | 1.68254 | 24982 ft | 480 kts | 102° |
| 2026-05-05 00:22 | 52.89214 | 1.73666 | 24998 ft | 482 kts | 102° |
| 2026-05-05 00:23 | 52.88546 | 1.79168 | 25008 ft | 492 kts | 102° |
| 2026-05-05 00:23 | 52.87855 | 1.84825 | 24989 ft | 497 kts | 102° |
| 2026-05-05 00:23 | 52.87169 | 1.90430 | 24990 ft | 496 kts | 103° |
| 2026-05-05 00:23 | 52.86490 | 1.95951 | 24990 ft | 496 kts | 103° |
| 2026-05-05 00:24 | 52.85801 | 2.01540 | 24984 ft | 495 kts | 103° |
| 2026-05-05 00:24 | 52.85111 | 2.07110 | 24993 ft | 495 kts | 103° |
| 2026-05-05 00:24 | 52.84416 | 2.12688 | 24991 ft | 494 kts | 103° |
| 2026-05-05 00:24 | 52.83721 | 2.18246 | 24984 ft | 494 kts | 103° |
| 2026-05-05 00:25 | 52.83024 | 2.23805 | 24989 ft | 493 kts | 103° |
| 2026-05-05 00:25 | 52.82324 | 2.29357 | 24995 ft | 493 kts | 103° |
| 2026-05-05 00:25 | 52.81622 | 2.34911 | 24978 ft | 493 kts | 103° |
| 2026-05-05 00:25 | 52.80919 | 2.40449 | 24987 ft | 493 kts | 103° |
| 2026-05-05 00:26 | 52.80212 | 2.45997 | 24988 ft | 493 kts | 103° |
| 2026-05-05 00:26 | 52.79504 | 2.51530 | 24990 ft | 493 kts | 103° |
| 2026-05-05 00:26 | 52.78789 | 2.57071 | 24989 ft | 493 kts | 103° |
| 2026-05-05 00:26 | 52.78072 | 2.62595 | 24981 ft | 493 kts | 103° |
| 2026-05-05 00:27 | 52.77357 | 2.68091 | 24966 ft | 480 kts | 103° |
| 2026-05-05 00:27 | 52.76672 | 2.73357 | 24810 ft | 461 kts | 103° |
| 2026-05-05 00:27 | 52.76002 | 2.78478 | 24300 ft | 452 kts | 103° |
| 2026-05-05 00:27 | 52.75345 | 2.83505 | 23830 ft | 444 kts | 103° |
| 2026-05-05 00:28 | 52.74710 | 2.88453 | 23313 ft | 437 kts | 103° |
| 2026-05-05 00:28 | 52.74088 | 2.93303 | 23024 ft | 425 kts | 103° |
| 2026-05-05 00:28 | 52.73469 | 2.98025 | 22999 ft | 421 kts | 105° |
| 2026-05-05 00:28 | 52.72389 | 3.02475 | 23004 ft | 417 kts | 121° |
| 2026-05-05 00:29 | 52.70914 | 3.06604 | 22675 ft | 420 kts | 123° |
| 2026-05-05 00:29 | 52.69415 | 3.10719 | 22105 ft | 417 kts | 123° |
| 2026-05-05 00:29 | 52.67935 | 3.14801 | 21566 ft | 413 kts | 122° |
| 2026-05-05 00:29 | 52.66487 | 3.18849 | 21040 ft | 408 kts | 122° |
| 2026-05-05 00:30 | 52.65065 | 3.22863 | 20497 ft | 404 kts | 122° |
| 2026-05-05 00:30 | 52.63663 | 3.26842 | 19948 ft | 401 kts | 122° |
| 2026-05-05 00:30 | 52.62269 | 3.30802 | 19302 ft | 399 kts | 122° |
| 2026-05-05 00:30 | 52.60870 | 3.34761 | 18323 ft | 402 kts | 122° |
| 2026-05-05 00:31 | 52.59461 | 3.38739 | 17266 ft | 402 kts | 121° |
| 2026-05-05 00:31 | 52.58277 | 3.42889 | 16204 ft | 403 kts | 106° |
| 2026-05-05 00:31 | 52.57769 | 3.47404 | 15234 ft | 400 kts | 99° |
| 2026-05-05 00:31 | 52.57338 | 3.51907 | 14262 ft | 397 kts | 99° |
| 2026-05-05 00:32 | 52.56897 | 3.56357 | 13244 ft | 392 kts | 99° |
| 2026-05-05 00:32 | 52.56447 | 3.60747 | 12206 ft | 387 kts | 100° |
| 2026-05-05 00:32 | 52.55991 | 3.65082 | 11206 ft | 383 kts | 100° |
| 2026-05-05 00:32 | 52.55534 | 3.69359 | 10244 ft | 379 kts | 100° |
| 2026-05-05 00:33 | 52.55076 | 3.73604 | 9210 ft | 374 kts | 100° |
| 2026-05-05 00:33 | 52.54622 | 3.77786 | 8178 ft | 370 kts | 100° |
| 2026-05-05 00:33 | 52.54173 | 3.81917 | 7179 ft | 364 kts | 100° |
| 2026-05-05 00:33 | 52.53731 | 3.85977 | 6195 ft | 358 kts | 99° |
| 2026-05-05 00:34 | 52.53295 | 3.89963 | 5178 ft | 352 kts | 99° |
| 2026-05-05 00:34 | 52.52862 | 3.93893 | 4157 ft | 346 kts | 98° |
| 2026-05-05 00:34 | 52.52185 | 3.97633 | 3386 ft | 337 kts | 116° |
| 2026-05-05 00:34 | 52.50965 | 4.00738 | 3201 ft | 310 kts | 122° |
| 2026-05-05 00:35 | 52.49769 | 4.03566 | 2737 ft | 297 kts | 122° |
| 2026-05-05 00:35 | 52.48611 | 4.06301 | 2226 ft | 286 kts | 122° |
| 2026-05-05 00:35 | 52.47517 | 4.08890 | 2058 ft | 266 kts | 122° |
| 2026-05-05 00:35 | 52.46505 | 4.11296 | 1987 ft | 246 kts | 122° |
| 2026-05-05 00:36 | 52.45572 | 4.13514 | 1979 ft | 229 kts | 122° |
| 2026-05-05 00:36 | 52.44680 | 4.15639 | 1979 ft | 224 kts | 121° |
| 2026-05-05 00:36 | 52.43791 | 4.17765 | 2002 ft | 228 kts | 122° |
| 2026-05-05 00:36 | 52.42891 | 4.19918 | 2010 ft | 230 kts | 122° |
| 2026-05-05 00:37 | 52.41990 | 4.22072 | 1996 ft | 228 kts | 122° |
| 2026-05-05 00:37 | 52.41093 | 4.24213 | 1991 ft | 228 kts | 121° |
| 2026-05-05 00:37 | 52.40197 | 4.26351 | 1982 ft | 227 kts | 121° |
| 2026-05-05 00:37 | 52.39306 | 4.28475 | 2001 ft | 226 kts | 121° |
| 2026-05-05 00:38 | 52.38417 | 4.30592 | 1991 ft | 226 kts | 121° |
| 2026-05-05 00:38 | 52.37525 | 4.32714 | 1998 ft | 226 kts | 122° |
| 2026-05-05 00:38 | 52.36598 | 4.34800 | 1984 ft | 229 kts | 131° |
| 2026-05-05 00:38 | 52.35222 | 4.36107 | 1993 ft | 234 kts | 162° |
| 2026-05-05 00:39 | 52.33611 | 4.36591 | 1994 ft | 236 kts | 168° |
| 2026-05-05 00:39 | 52.31988 | 4.37037 | 2000 ft | 238 kts | 168° |
| 2026-05-05 00:39 | 52.30351 | 4.37491 | 1983 ft | 239 kts | 168° |
| 2026-05-05 00:39 | 52.28714 | 4.37945 | 1990 ft | 238 kts | 168° |
| 2026-05-05 00:40 | 52.27079 | 4.38393 | 1996 ft | 239 kts | 168° |
| 2026-05-05 00:40 | 52.25429 | 4.38843 | 1968 ft | 240 kts | 168° |
| 2026-05-05 00:40 | 52.23793 | 4.39293 | 1970 ft | 239 kts | 168° |
| 2026-05-05 00:40 | 52.22165 | 4.39734 | 1991 ft | 232 kts | 168° |
| 2026-05-05 00:41 | 52.20615 | 4.40163 | 1983 ft | 221 kts | 167° |
| 2026-05-05 00:41 | 52.19113 | 4.40593 | 1960 ft | 220 kts | 167° |
| 2026-05-05 00:41 | 52.17595 | 4.41037 | 1974 ft | 223 kts | 167° |
| 2026-05-05 00:41 | 52.16122 | 4.41735 | 1967 ft | 219 kts | 156° |
| 2026-05-05 00:42 | 52.14672 | 4.42593 | 1962 ft | 223 kts | 157° |
| 2026-05-05 00:42 | 52.13208 | 4.43461 | 1980 ft | 224 kts | 156° |
| 2026-05-05 00:42 | 52.11845 | 4.44610 | 1950 ft | 218 kts | 144° |
| 2026-05-05 00:42 | 52.10595 | 4.45977 | 1960 ft | 216 kts | 142° |
| 2026-05-05 00:43 | 52.09349 | 4.47377 | 1979 ft | 217 kts | 142° |
| 2026-05-05 00:43 | 52.08106 | 4.48777 | 1964 ft | 218 kts | 142° |
| 2026-05-05 00:43 | 52.06878 | 4.50158 | 1961 ft | 218 kts | 142° |
| 2026-05-05 00:43 | 52.05621 | 4.51554 | 1949 ft | 218 kts | 142° |
| 2026-05-05 00:44 | 52.04380 | 4.52966 | 1951 ft | 216 kts | 137° |
| 2026-05-05 00:44 | 52.03274 | 4.54598 | 1962 ft | 215 kts | 133° |
| 2026-05-05 00:44 | 52.02280 | 4.56395 | 1971 ft | 214 kts | 124° |
| 2026-05-05 00:44 | 52.01407 | 4.58337 | 1952 ft | 212 kts | 119° |
| 2026-05-05 00:45 | 52.00755 | 4.60458 | 1979 ft | 209 kts | 107° |
| 2026-05-05 00:45 | 52.00430 | 4.62744 | 1969 ft | 208 kts | 94° |
| 2026-05-05 00:45 | 52.00444 | 4.65073 | 1968 ft | 205 kts | 80° |
| 2026-05-05 00:45 | 52.00795 | 4.67301 | 1969 ft | 204 kts | 67° |
| 2026-05-05 00:46 | 52.01437 | 4.69352 | 1958 ft | 203 kts | 58° |
| 2026-05-05 00:46 | 52.02218 | 4.71247 | 1983 ft | 202 kts | 51° |
| 2026-05-05 00:46 | 52.03213 | 4.72849 | 1961 ft | 202 kts | 37° |
| 2026-05-05 00:46 | 52.04487 | 4.73807 | 1967 ft | 203 kts | 21° |
| 2026-05-05 00:47 | 52.05859 | 4.74352 | 1954 ft | 206 kts | 3° |
| 2026-05-05 00:47 | 52.07295 | 4.74251 | 1980 ft | 207 kts | 1° |
| 2026-05-05 00:47 | 52.08693 | 4.74645 | 1972 ft | 203 kts | 25° |
| 2026-05-05 00:47 | 52.10008 | 4.75496 | 1978 ft | 204 kts | 24° |
| 2026-05-05 00:48 | 52.11322 | 4.76387 | 1981 ft | 205 kts | 26° |
| 2026-05-05 00:48 | 52.12653 | 4.77206 | 1978 ft | 207 kts | 14° |
| 2026-05-05 00:48 | 52.14094 | 4.77398 | 1993 ft | 208 kts | 4° |
| 2026-05-05 00:48 | 52.15514 | 4.77490 | 1980 ft | 198 kts | 5° |
| 2026-05-05 00:49 | 52.16859 | 4.77516 | 1880 ft | 195 kts | 359° |
| 2026-05-05 00:49 | 52.18245 | 4.77221 | 1399 ft | 201 kts | 352° |
| 2026-05-05 00:49 | 52.19558 | 4.76843 | 1112 ft | 184 kts | 357° |
| 2026-05-05 00:49 | 52.20832 | 4.76858 | 958 ft | 185 kts | 5° |
| 2026-05-05 00:50 | 52.22125 | 4.77009 | 1148 ft | 190 kts | 7° |
| 2026-05-05 00:50 | 52.23399 | 4.77190 | 845 ft | 179 kts | 5° |
| 2026-05-05 00:50 | 52.24652 | 4.77253 | 761 ft | 188 kts | 4° |
| 2026-05-05 00:50 | 52.25967 | 4.77129 | 880 ft | 182 kts | 6° |
| 2026-05-05 00:51 | 52.27161 | 4.77467 | 459 ft | 170 kts | 10° |
| 2026-05-05 00:51 | 52.28280 | 4.77644 | 199 ft | 149 kts | 6° |
| 2026-05-05 00:51 | 52.29221 | 4.77732 | 80 ft | 121 kts | 6° |
| 2026-05-05 00:51 | 52.29971 | 4.77811 | -3 ft | 95 kts | 8° |
| 2026-05-05 00:52 | 52.30422 | 4.77863 | 0 ft | 49 kts | 2° |
| 2026-05-05 00:52 | 52.30704 | 4.77885 | -5 ft | 31 kts | 3° |
| 2026-05-05 00:52 | 52.30864 | 4.77870 | -7 ft | 22 kts | 347° |
| 2026-05-05 00:52 | 52.30955 | 4.77809 | -8 ft | 21 kts | 333° |
| 2026-05-05 00:53 | 52.31030 | 4.77746 | -4 ft | 0 kts | 332° |
| 2026-05-05 00:53 | 52.31030 | 4.77745 | -4 ft | 0 kts | 332° |
| 2026-05-05 00:54 | 52.31040 | 4.77736 | -4 ft | 4 kts | 332° |
| 2026-05-05 00:54 | 52.31074 | 4.77708 | -3 ft | 7 kts | 333° |
| 2026-05-05 00:54 | 52.31128 | 4.77652 | -3 ft | 11 kts | 315° |
| 2026-05-05 00:54 | 52.31143 | 4.77528 | -3 ft | 12 kts | 240° |
| 2026-05-05 00:55 | 52.31084 | 4.77438 | -3 ft | 12 kts | 246° |
| 2026-05-05 00:55 | 52.31049 | 4.77367 | -3 ft | 9 kts | 205° |
| 2026-05-05 00:55 | 52.31002 | 4.77363 | -3 ft | 0 kts | 180° |